sensor_id;sensor_type;location;lat;lon;timestamp;P1;durP1;ratioP1;P2;durP2;ratioP2
27985;SDS011;15453;53.692;10.168;2022-09-09T00:00:44;26.20;;;17.05;;
27985;SDS011;15453;53.692;10.168;2022-09-09T00:03:16;25.98;;;17.05;;
27985;SDS011;15453;53.692;10.168;2022-09-09T00:05:56;24.17;;;17.95;;
27985;SDS011;15453;53.692;10.168;2022-09-09T00:08:33;32.22;;;17.55;;
27985;SDS011;15453;53.692;10.168;2022-09-09T00:11:04;35.75;;;19.55;;
27985;SDS011;15453;53.692;10.168;2022-09-09T00:13:46;28.40;;;18.45;;
27985;SDS011;15453;53.692;10.168;2022-09-09T00:16:19;29.48;;;20.65;;
27985;SDS011;15453;53.692;10.168;2022-09-09T00:24:01;33.58;;;20.17;;
27985;SDS011;15453;53.692;10.168;2022-09-09T00:26:38;43.42;;;21.00;;
27985;SDS011;15453;53.692;10.168;2022-09-09T00:31:32;28.70;;;21.50;;
27985;SDS011;15453;53.692;10.168;2022-09-09T00:33:59;31.85;;;21.88;;
27985;SDS011;15453;53.692;10.168;2022-09-09T00:36:29;34.92;;;21.60;;
27985;SDS011;15453;53.692;10.168;2022-09-09T00:38:59;30.38;;;22.88;;
27985;SDS011;15453;53.692;10.168;2022-09-09T00:41:46;38.13;;;21.85;;
27985;SDS011;15453;53.692;10.168;2022-09-09T00:44:30;34.00;;;21.38;;
27985;SDS011;15453;53.692;10.168;2022-09-09T00:50:11;56.45;;;21.50;;
27985;SDS011;15453;53.692;10.168;2022-09-09T00:55:27;37.55;;;20.60;;
27985;SDS011;15453;53.692;10.168;2022-09-09T00:58:02;28.45;;;19.73;;
27985;SDS011;15453;53.692;10.168;2022-09-09T01:00:28;30.50;;;20.23;;
27985;SDS011;15453;53.692;10.168;2022-09-09T01:06:11;30.33;;;18.42;;
27985;SDS011;15453;53.692;10.168;2022-09-09T01:11:05;27.25;;;19.83;;
27985;SDS011;15453;53.692;10.168;2022-09-09T01:13:40;29.42;;;19.83;;
27985;SDS011;15453;53.692;10.168;2022-09-09T01:16:08;26.33;;;19.05;;
27985;SDS011;15453;53.692;10.168;2022-09-09T01:18:40;28.95;;;20.55;;
27985;SDS011;15453;53.692;10.168;2022-09-09T01:24:08;27.52;;;19.45;;
27985;SDS011;15453;53.692;10.168;2022-09-09T01:26:44;28.98;;;19.48;;
27985;SDS011;15453;53.692;10.168;2022-09-09T01:29:16;26.48;;;16.67;;
27985;SDS011;15453;53.692;10.168;2022-09-09T01:31:56;23.70;;;16.98;;
27985;SDS011;15453;53.692;10.168;2022-09-09T01:34:33;21.70;;;15.23;;
27985;SDS011;15453;53.692;10.168;2022-09-09T01:37:10;22.35;;;17.23;;
27985;SDS011;15453;53.692;10.168;2022-09-09T01:39:37;17.70;;;14.52;;
27985;SDS011;15453;53.692;10.168;2022-09-09T01:42:05;19.48;;;16.00;;
27985;SDS011;15453;53.692;10.168;2022-09-09T01:44:32;17.52;;;14.65;;
27985;SDS011;15453;53.692;10.168;2022-09-09T01:46:59;17.88;;;14.68;;
27985;SDS011;15453;53.692;10.168;2022-09-09T01:49:25;19.58;;;14.82;;
27985;SDS011;15453;53.692;10.168;2022-09-09T01:51:54;19.45;;;13.82;;
27985;SDS011;15453;53.692;10.168;2022-09-09T01:54:21;16.92;;;14.20;;
27985;SDS011;15453;53.692;10.168;2022-09-09T02:02:13;17.15;;;14.30;;
27985;SDS011;15453;53.692;10.168;2022-09-09T02:04:43;18.65;;;14.55;;
27985;SDS011;15453;53.692;10.168;2022-09-09T02:09:57;19.88;;;15.75;;
27985;SDS011;15453;53.692;10.168;2022-09-09T02:12:27;17.73;;;14.82;;
27985;SDS011;15453;53.692;10.168;2022-09-09T02:14:56;17.65;;;14.60;;
27985;SDS011;15453;53.692;10.168;2022-09-09T02:17:28;19.42;;;14.40;;
27985;SDS011;15453;53.692;10.168;2022-09-09T02:20:03;18.02;;;14.55;;
27985;SDS011;15453;53.692;10.168;2022-09-09T02:22:33;19.30;;;14.82;;
27985;SDS011;15453;53.692;10.168;2022-09-09T02:25:01;18.90;;;15.32;;
27985;SDS011;15453;53.692;10.168;2022-09-09T02:27:28;19.23;;;14.32;;
27985;SDS011;15453;53.692;10.168;2022-09-09T02:29:54;19.38;;;15.05;;
27985;SDS011;15453;53.692;10.168;2022-09-09T02:32:23;19.08;;;14.98;;
27985;SDS011;15453;53.692;10.168;2022-09-09T02:34:56;24.10;;;16.58;;
27985;SDS011;15453;53.692;10.168;2022-09-09T02:37:26;20.98;;;16.05;;
27985;SDS011;15453;53.692;10.168;2022-09-09T02:39:55;20.73;;;16.05;;
27985;SDS011;15453;53.692;10.168;2022-09-09T02:42:20;20.20;;;15.05;;
27985;SDS011;15453;53.692;10.168;2022-09-09T02:44:46;19.15;;;15.02;;
27985;SDS011;15453;53.692;10.168;2022-09-09T02:49:48;22.13;;;17.17;;
27985;SDS011;15453;53.692;10.168;2022-09-09T02:52:21;20.58;;;15.52;;
27985;SDS011;15453;53.692;10.168;2022-09-09T02:54:57;20.63;;;15.02;;
27985;SDS011;15453;53.692;10.168;2022-09-09T02:57:29;20.08;;;15.27;;
27985;SDS011;15453;53.692;10.168;2022-09-09T02:59:57;19.40;;;15.35;;
27985;SDS011;15453;53.692;10.168;2022-09-09T03:02:23;20.45;;;15.30;;
27985;SDS011;15453;53.692;10.168;2022-09-09T03:04:50;18.52;;;14.65;;
27985;SDS011;15453;53.692;10.168;2022-09-09T03:07:17;18.88;;;14.68;;
27985;SDS011;15453;53.692;10.168;2022-09-09T03:09:43;18.30;;;13.80;;
27985;SDS011;15453;53.692;10.168;2022-09-09T03:12:09;18.45;;;14.63;;
27985;SDS011;15453;53.692;10.168;2022-09-09T03:14:36;19.42;;;14.90;;
27985;SDS011;15453;53.692;10.168;2022-09-09T03:17:03;17.52;;;13.60;;
27985;SDS011;15453;53.692;10.168;2022-09-09T03:19:29;18.17;;;14.55;;
27985;SDS011;15453;53.692;10.168;2022-09-09T03:21:54;18.42;;;14.55;;
27985;SDS011;15453;53.692;10.168;2022-09-09T03:24:20;17.00;;;13.48;;
27985;SDS011;15453;53.692;10.168;2022-09-09T03:26:46;18.48;;;14.40;;
27985;SDS011;15453;53.692;10.168;2022-09-09T03:29:12;17.02;;;13.35;;
27985;SDS011;15453;53.692;10.168;2022-09-09T03:31:37;17.80;;;14.73;;
27985;SDS011;15453;53.692;10.168;2022-09-09T03:34:03;16.90;;;13.05;;
27985;SDS011;15453;53.692;10.168;2022-09-09T03:36:29;17.85;;;14.13;;
27985;SDS011;15453;53.692;10.168;2022-09-09T03:38:54;18.08;;;13.82;;
27985;SDS011;15453;53.692;10.168;2022-09-09T03:41:21;19.30;;;15.32;;
27985;SDS011;15453;53.692;10.168;2022-09-09T03:43:49;15.70;;;13.70;;
27985;SDS011;15453;53.692;10.168;2022-09-09T03:46:15;19.15;;;14.88;;
27985;SDS011;15453;53.692;10.168;2022-09-09T03:48:40;17.88;;;14.60;;
27985;SDS011;15453;53.692;10.168;2022-09-09T03:51:06;18.85;;;14.05;;
27985;SDS011;15453;53.692;10.168;2022-09-09T03:53:31;18.48;;;14.82;;
27985;SDS011;15453;53.692;10.168;2022-09-09T03:55:57;17.10;;;14.23;;
27985;SDS011;15453;53.692;10.168;2022-09-09T03:58:24;18.90;;;13.95;;
27985;SDS011;15453;53.692;10.168;2022-09-09T04:03:21;16.95;;;13.90;;
27985;SDS011;15453;53.692;10.168;2022-09-09T04:05:48;18.58;;;13.48;;
27985;SDS011;15453;53.692;10.168;2022-09-09T04:08:14;17.63;;;14.35;;
27985;SDS011;15453;53.692;10.168;2022-09-09T04:10:39;17.65;;;14.63;;
27985;SDS011;15453;53.692;10.168;2022-09-09T04:13:04;15.32;;;12.90;;
27985;SDS011;15453;53.692;10.168;2022-09-09T04:15:30;16.58;;;12.65;;
27985;SDS011;15453;53.692;10.168;2022-09-09T04:17:56;17.73;;;13.35;;
27985;SDS011;15453;53.692;10.168;2022-09-09T04:20:21;16.23;;;13.27;;
27985;SDS011;15453;53.692;10.168;2022-09-09T04:22:47;17.15;;;12.75;;
27985;SDS011;15453;53.692;10.168;2022-09-09T04:25:12;17.30;;;14.65;;
27985;SDS011;15453;53.692;10.168;2022-09-09T04:27:38;16.38;;;13.82;;
27985;SDS011;15453;53.692;10.168;2022-09-09T04:30:03;18.30;;;14.25;;
27985;SDS011;15453;53.692;10.168;2022-09-09T04:32:28;15.35;;;12.55;;
27985;SDS011;15453;53.692;10.168;2022-09-09T04:34:54;16.40;;;13.75;;
27985;SDS011;15453;53.692;10.168;2022-09-09T04:37:19;16.65;;;13.70;;
27985;SDS011;15453;53.692;10.168;2022-09-09T04:39:44;16.73;;;13.70;;
27985;SDS011;15453;53.692;10.168;2022-09-09T04:42:10;17.88;;;14.52;;
27985;SDS011;15453;53.692;10.168;2022-09-09T04:44:38;15.85;;;13.43;;
27985;SDS011;15453;53.692;10.168;2022-09-09T04:47:05;16.88;;;13.75;;
27985;SDS011;15453;53.692;10.168;2022-09-09T04:49:30;15.00;;;13.07;;
27985;SDS011;15453;53.692;10.168;2022-09-09T04:51:56;17.77;;;13.32;;
27985;SDS011;15453;53.692;10.168;2022-09-09T04:54:21;15.02;;;12.77;;
27985;SDS011;15453;53.692;10.168;2022-09-09T04:56:47;16.52;;;12.70;;
27985;SDS011;15453;53.692;10.168;2022-09-09T04:59:12;14.90;;;12.82;;
27985;SDS011;15453;53.692;10.168;2022-09-09T05:01:37;17.10;;;13.57;;
27985;SDS011;15453;53.692;10.168;2022-09-09T05:04:03;16.55;;;12.95;;
27985;SDS011;15453;53.692;10.168;2022-09-09T05:06:28;15.07;;;12.95;;
27985;SDS011;15453;53.692;10.168;2022-09-09T05:08:56;14.35;;;12.40;;
27985;SDS011;15453;53.692;10.168;2022-09-09T05:11:23;16.63;;;13.00;;
27985;SDS011;15453;53.692;10.168;2022-09-09T05:13:51;16.70;;;13.32;;
27985;SDS011;15453;53.692;10.168;2022-09-09T05:16:17;13.80;;;12.23;;
27985;SDS011;15453;53.692;10.168;2022-09-09T05:18:44;14.50;;;11.57;;
27985;SDS011;15453;53.692;10.168;2022-09-09T05:21:11;17.20;;;12.85;;
27985;SDS011;15453;53.692;10.168;2022-09-09T05:23:37;17.33;;;12.85;;
27985;SDS011;15453;53.692;10.168;2022-09-09T05:26:03;14.00;;;12.40;;
27985;SDS011;15453;53.692;10.168;2022-09-09T05:28:29;12.60;;;11.00;;
27985;SDS011;15453;53.692;10.168;2022-09-09T05:30:59;14.00;;;11.55;;
27985;SDS011;15453;53.692;10.168;2022-09-09T05:33:26;13.63;;;11.95;;
27985;SDS011;15453;53.692;10.168;2022-09-09T05:35:56;12.55;;;11.20;;
27985;SDS011;15453;53.692;10.168;2022-09-09T05:38:25;12.43;;;11.00;;
27985;SDS011;15453;53.692;10.168;2022-09-09T05:40:51;12.60;;;10.35;;
27985;SDS011;15453;53.692;10.168;2022-09-09T05:43:17;12.02;;;10.63;;
27985;SDS011;15453;53.692;10.168;2022-09-09T05:45:44;17.27;;;12.30;;
27985;SDS011;15453;53.692;10.168;2022-09-09T05:48:12;12.48;;;10.32;;
27985;SDS011;15453;53.692;10.168;2022-09-09T05:50:37;9.85;;;8.63;;
27985;SDS011;15453;53.692;10.168;2022-09-09T05:53:03;12.63;;;9.98;;
27985;SDS011;15453;53.692;10.168;2022-09-09T05:55:28;10.93;;;9.63;;
27985;SDS011;15453;53.692;10.168;2022-09-09T05:57:54;9.70;;;8.70;;
27985;SDS011;15453;53.692;10.168;2022-09-09T06:00:19;11.10;;;9.07;;
27985;SDS011;15453;53.692;10.168;2022-09-09T06:02:49;12.38;;;9.07;;
27985;SDS011;15453;53.692;10.168;2022-09-09T06:05:17;10.82;;;8.50;;
27985;SDS011;15453;53.692;10.168;2022-09-09T06:07:42;11.23;;;8.65;;
27985;SDS011;15453;53.692;10.168;2022-09-09T06:10:09;9.25;;;8.20;;
27985;SDS011;15453;53.692;10.168;2022-09-09T06:12:35;9.35;;;8.18;;
27985;SDS011;15453;53.692;10.168;2022-09-09T06:15:00;25.08;;;8.77;;
27985;SDS011;15453;53.692;10.168;2022-09-09T06:17:26;8.25;;;6.57;;
27985;SDS011;15453;53.692;10.168;2022-09-09T06:19:51;9.02;;;7.35;;
27985;SDS011;15453;53.692;10.168;2022-09-09T06:22:17;9.85;;;6.85;;
27985;SDS011;15453;53.692;10.168;2022-09-09T06:24:42;7.85;;;6.85;;
27985;SDS011;15453;53.692;10.168;2022-09-09T06:27:08;9.43;;;6.43;;
27985;SDS011;15453;53.692;10.168;2022-09-09T06:29:33;13.90;;;6.32;;
27985;SDS011;15453;53.692;10.168;2022-09-09T06:31:58;7.32;;;5.88;;
27985;SDS011;15453;53.692;10.168;2022-09-09T06:34:23;8.48;;;6.40;;
27985;SDS011;15453;53.692;10.168;2022-09-09T06:36:49;7.90;;;5.28;;
27985;SDS011;15453;53.692;10.168;2022-09-09T06:39:14;7.18;;;5.32;;
27985;SDS011;15453;53.692;10.168;2022-09-09T06:41:40;7.47;;;5.95;;
27985;SDS011;15453;53.692;10.168;2022-09-09T06:44:07;15.13;;;5.75;;
27985;SDS011;15453;53.692;10.168;2022-09-09T06:46:32;6.82;;;5.28;;
27985;SDS011;15453;53.692;10.168;2022-09-09T06:48:58;7.78;;;4.75;;
27985;SDS011;15453;53.692;10.168;2022-09-09T06:51:31;7.30;;;5.63;;
27985;SDS011;15453;53.692;10.168;2022-09-09T06:53:59;7.30;;;5.45;;
27985;SDS011;15453;53.692;10.168;2022-09-09T06:56:27;6.00;;;5.15;;
27985;SDS011;15453;53.692;10.168;2022-09-09T06:58:53;4.78;;;4.35;;
27985;SDS011;15453;53.692;10.168;2022-09-09T07:01:21;9.45;;;6.32;;
27985;SDS011;15453;53.692;10.168;2022-09-09T07:03:49;8.48;;;5.22;;
27985;SDS011;15453;53.692;10.168;2022-09-09T07:06:18;6.03;;;4.38;;
27985;SDS011;15453;53.692;10.168;2022-09-09T07:08:49;6.25;;;5.07;;
27985;SDS011;15453;53.692;10.168;2022-09-09T07:11:15;6.13;;;4.80;;
27985;SDS011;15453;53.692;10.168;2022-09-09T07:13:41;8.32;;;5.32;;
27985;SDS011;15453;53.692;10.168;2022-09-09T07:16:08;7.03;;;5.30;;
27985;SDS011;15453;53.692;10.168;2022-09-09T07:18:35;6.55;;;4.78;;
27985;SDS011;15453;53.692;10.168;2022-09-09T07:21:01;8.45;;;5.07;;
27985;SDS011;15453;53.692;10.168;2022-09-09T07:23:28;6.75;;;5.00;;
27985;SDS011;15453;53.692;10.168;2022-09-09T07:25:53;6.13;;;4.90;;
27985;SDS011;15453;53.692;10.168;2022-09-09T07:28:19;6.30;;;4.97;;
27985;SDS011;15453;53.692;10.168;2022-09-09T07:30:55;6.90;;;4.70;;
27985;SDS011;15453;53.692;10.168;2022-09-09T07:33:27;8.80;;;4.65;;
27985;SDS011;15453;53.692;10.168;2022-09-09T07:36:01;5.70;;;4.28;;
27985;SDS011;15453;53.692;10.168;2022-09-09T07:38:37;8.65;;;5.43;;
27985;SDS011;15453;53.692;10.168;2022-09-09T07:41:04;5.97;;;4.45;;
27985;SDS011;15453;53.692;10.168;2022-09-09T07:43:31;5.00;;;4.50;;
27985;SDS011;15453;53.692;10.168;2022-09-09T07:45:58;7.13;;;4.65;;
27985;SDS011;15453;53.692;10.168;2022-09-09T07:48:23;6.38;;;3.88;;
27985;SDS011;15453;53.692;10.168;2022-09-09T07:50:49;6.13;;;4.50;;
27985;SDS011;15453;53.692;10.168;2022-09-09T07:53:14;6.15;;;4.20;;
27985;SDS011;15453;53.692;10.168;2022-09-09T07:55:39;6.07;;;3.90;;
27985;SDS011;15453;53.692;10.168;2022-09-09T07:58:05;5.30;;;4.10;;
27985;SDS011;15453;53.692;10.168;2022-09-09T08:00:30;7.05;;;4.50;;
27985;SDS011;15453;53.692;10.168;2022-09-09T08:02:57;7.50;;;4.55;;
27985;SDS011;15453;53.692;10.168;2022-09-09T08:05:23;7.85;;;4.38;;
27985;SDS011;15453;53.692;10.168;2022-09-09T08:07:48;6.35;;;4.68;;
27985;SDS011;15453;53.692;10.168;2022-09-09T08:10:13;6.03;;;4.50;;
27985;SDS011;15453;53.692;10.168;2022-09-09T08:12:40;5.50;;;4.13;;
27985;SDS011;15453;53.692;10.168;2022-09-09T08:15:06;6.93;;;4.82;;
27985;SDS011;15453;53.692;10.168;2022-09-09T08:17:31;6.88;;;4.03;;
27985;SDS011;15453;53.692;10.168;2022-09-09T08:19:57;6.70;;;3.95;;
27985;SDS011;15453;53.692;10.168;2022-09-09T08:22:26;7.35;;;4.57;;
27985;SDS011;15453;53.692;10.168;2022-09-09T08:24:51;6.70;;;4.20;;
27985;SDS011;15453;53.692;10.168;2022-09-09T08:27:17;7.18;;;4.13;;
27985;SDS011;15453;53.692;10.168;2022-09-09T08:29:42;5.20;;;3.80;;
27985;SDS011;15453;53.692;10.168;2022-09-09T08:32:07;5.10;;;3.80;;
27985;SDS011;15453;53.692;10.168;2022-09-09T08:34:33;5.47;;;3.67;;
27985;SDS011;15453;53.692;10.168;2022-09-09T08:36:58;6.32;;;3.67;;
27985;SDS011;15453;53.692;10.168;2022-09-09T08:39:24;4.88;;;3.70;;
27985;SDS011;15453;53.692;10.168;2022-09-09T08:47:13;5.22;;;3.55;;
27985;SDS011;15453;53.692;10.168;2022-09-09T08:52:23;4.65;;;3.17;;
27985;SDS011;15453;53.692;10.168;2022-09-09T08:54:55;6.13;;;3.17;;
27985;SDS011;15453;53.692;10.168;2022-09-09T08:57:25;5.70;;;3.28;;
27985;SDS011;15453;53.692;10.168;2022-09-09T08:59:52;3.97;;;2.90;;
27985;SDS011;15453;53.692;10.168;2022-09-09T09:02:38;4.50;;;3.20;;
27985;SDS011;15453;53.692;10.168;2022-09-09T09:08:08;5.32;;;3.25;;
27985;SDS011;15453;53.692;10.168;2022-09-09T09:10:53;6.25;;;3.38;;
27985;SDS011;15453;53.692;10.168;2022-09-09T09:19:13;4.30;;;2.53;;
27985;SDS011;15453;53.692;10.168;2022-09-09T09:27:14;5.13;;;2.50;;
27985;SDS011;15453;53.692;10.168;2022-09-09T09:29:43;3.85;;;2.30;;
27985;SDS011;15453;53.692;10.168;2022-09-09T09:32:11;6.82;;;2.60;;
27985;SDS011;15453;53.692;10.168;2022-09-09T09:34:41;6.50;;;2.50;;
27985;SDS011;15453;53.692;10.168;2022-09-09T09:37:12;5.57;;;2.65;;
27985;SDS011;15453;53.692;10.168;2022-09-09T09:39:44;6.28;;;2.47;;
27985;SDS011;15453;53.692;10.168;2022-09-09T09:42:13;3.17;;;2.00;;
27985;SDS011;15453;53.692;10.168;2022-09-09T09:44:42;7.28;;;2.92;;
27985;SDS011;15453;53.692;10.168;2022-09-09T09:47:15;5.00;;;2.70;;
27985;SDS011;15453;53.692;10.168;2022-09-09T09:49:51;4.07;;;2.83;;
27985;SDS011;15453;53.692;10.168;2022-09-09T09:52:24;5.68;;;2.25;;
27985;SDS011;15453;53.692;10.168;2022-09-09T09:54:51;4.13;;;2.22;;
27985;SDS011;15453;53.692;10.168;2022-09-09T09:57:18;6.28;;;2.42;;
27985;SDS011;15453;53.692;10.168;2022-09-09T10:00:14;2.45;;;1.80;;
27985;SDS011;15453;53.692;10.168;2022-09-09T10:02:48;10.60;;;5.30;;
27985;SDS011;15453;53.692;10.168;2022-09-09T10:07:45;3.53;;;1.95;;
27985;SDS011;15453;53.692;10.168;2022-09-09T10:10:21;4.18;;;1.92;;
27985;SDS011;15453;53.692;10.168;2022-09-09T10:15:51;3.58;;;1.63;;
27985;SDS011;15453;53.692;10.168;2022-09-09T10:18:35;4.30;;;1.90;;
27985;SDS011;15453;53.692;10.168;2022-09-09T10:21:20;4.15;;;1.55;;
27985;SDS011;15453;53.692;10.168;2022-09-09T10:24:06;4.38;;;1.75;;
27985;SDS011;15453;53.692;10.168;2022-09-09T10:26:46;3.30;;;2.00;;
27985;SDS011;15453;53.692;10.168;2022-09-09T10:32:06;2.55;;;1.63;;
27985;SDS011;15453;53.692;10.168;2022-09-09T10:46:15;1.48;;;1.02;;
27985;SDS011;15453;53.692;10.168;2022-09-09T10:48:54;3.55;;;1.42;;
27985;SDS011;15453;53.692;10.168;2022-09-09T10:51:48;3.28;;;1.30;;
27985;SDS011;15453;53.692;10.168;2022-09-09T10:57:10;3.00;;;1.25;;
27985;SDS011;15453;53.692;10.168;2022-09-09T10:59:57;2.63;;;1.00;;
27985;SDS011;15453;53.692;10.168;2022-09-09T11:02:28;4.07;;;1.13;;
27985;SDS011;15453;53.692;10.168;2022-09-09T11:05:02;3.85;;;1.08;;
27985;SDS011;15453;53.692;10.168;2022-09-09T11:07:40;2.60;;;0.95;;
27985;SDS011;15453;53.692;10.168;2022-09-09T11:10:42;3.95;;;1.23;;
27985;SDS011;15453;53.692;10.168;2022-09-09T11:13:01;1.73;;;0.90;;
27985;SDS011;15453;53.692;10.168;2022-09-09T11:15:31;2.17;;;0.90;;
27985;SDS011;15453;53.692;10.168;2022-09-09T11:18:03;2.15;;;0.95;;
27985;SDS011;15453;53.692;10.168;2022-09-09T11:20:31;1.42;;;0.70;;
27985;SDS011;15453;53.692;10.168;2022-09-09T11:25:33;1.83;;;0.82;;
27985;SDS011;15453;53.692;10.168;2022-09-09T11:28:25;5.03;;;1.08;;
27985;SDS011;15453;53.692;10.168;2022-09-09T11:39:22;1.60;;;0.80;;
27985;SDS011;15453;53.692;10.168;2022-09-09T11:42:15;3.72;;;0.93;;
27985;SDS011;15453;53.692;10.168;2022-09-09T11:44:44;5.10;;;1.00;;
27985;SDS011;15453;53.692;10.168;2022-09-09T11:47:20;2.13;;;1.13;;
27985;SDS011;15453;53.692;10.168;2022-09-09T11:49:51;5.13;;;1.00;;
27985;SDS011;15453;53.692;10.168;2022-09-09T11:52:23;3.92;;;1.10;;
27985;SDS011;15453;53.692;10.168;2022-09-09T11:54:52;3.53;;;1.30;;
27985;SDS011;15453;53.692;10.168;2022-09-09T11:57:24;2.15;;;1.05;;
27985;SDS011;15453;53.692;10.168;2022-09-09T11:59:55;2.42;;;1.15;;
27985;SDS011;15453;53.692;10.168;2022-09-09T12:02:25;4.25;;;1.33;;
27985;SDS011;15453;53.692;10.168;2022-09-09T12:05:05;3.40;;;1.40;;
27985;SDS011;15453;53.692;10.168;2022-09-09T12:07:35;3.33;;;1.20;;
27985;SDS011;15453;53.692;10.168;2022-09-09T12:12:36;2.30;;;1.35;;
27985;SDS011;15453;53.692;10.168;2022-09-09T12:17:44;1.95;;;0.77;;
27985;SDS011;15453;53.692;10.168;2022-09-09T12:23:02;2.38;;;1.00;;
27985;SDS011;15453;53.692;10.168;2022-09-09T12:25:33;4.10;;;1.00;;
27985;SDS011;15453;53.692;10.168;2022-09-09T12:31:32;2.80;;;1.00;;
27985;SDS011;15453;53.692;10.168;2022-09-09T12:34:11;2.75;;;1.23;;
27985;SDS011;15453;53.692;10.168;2022-09-09T12:36:41;1.58;;;1.20;;
27985;SDS011;15453;53.692;10.168;2022-09-09T12:39:33;3.35;;;1.25;;
27985;SDS011;15453;53.692;10.168;2022-09-09T12:42:00;6.32;;;1.00;;
27985;SDS011;15453;53.692;10.168;2022-09-09T12:44:26;2.83;;;1.05;;
27985;SDS011;15453;53.692;10.168;2022-09-09T12:46:55;3.65;;;0.98;;
27985;SDS011;15453;53.692;10.168;2022-09-09T12:49:33;2.58;;;1.00;;
27985;SDS011;15453;53.692;10.168;2022-09-09T12:52:01;1.63;;;0.90;;
27985;SDS011;15453;53.692;10.168;2022-09-09T12:54:29;3.28;;;1.05;;
27985;SDS011;15453;53.692;10.168;2022-09-09T12:56:55;3.17;;;1.00;;
27985;SDS011;15453;53.692;10.168;2022-09-09T12:59:34;3.13;;;1.17;;
27985;SDS011;15453;53.692;10.168;2022-09-09T13:02:01;2.58;;;1.40;;
27985;SDS011;15453;53.692;10.168;2022-09-09T13:04:26;4.68;;;1.27;;
27985;SDS011;15453;53.692;10.168;2022-09-09T13:06:52;2.83;;;1.00;;
27985;SDS011;15453;53.692;10.168;2022-09-09T13:09:17;5.25;;;1.30;;
27985;SDS011;15453;53.692;10.168;2022-09-09T13:11:45;2.60;;;1.20;;
27985;SDS011;15453;53.692;10.168;2022-09-09T13:14:28;3.60;;;1.75;;
27985;SDS011;15453;53.692;10.168;2022-09-09T13:16:58;3.10;;;1.40;;
27985;SDS011;15453;53.692;10.168;2022-09-09T13:19:25;3.00;;;1.40;;
27985;SDS011;15453;53.692;10.168;2022-09-09T13:21:53;4.20;;;1.75;;
27985;SDS011;15453;53.692;10.168;2022-09-09T13:24:30;2.95;;;1.20;;
27985;SDS011;15453;53.692;10.168;2022-09-09T13:26:57;3.08;;;1.23;;
27985;SDS011;15453;53.692;10.168;2022-09-09T13:29:29;3.63;;;1.30;;
27985;SDS011;15453;53.692;10.168;2022-09-09T13:32:06;2.63;;;1.10;;
27985;SDS011;15453;53.692;10.168;2022-09-09T13:34:40;2.35;;;1.40;;
27985;SDS011;15453;53.692;10.168;2022-09-09T13:37:32;2.42;;;1.13;;
27985;SDS011;15453;53.692;10.168;2022-09-09T13:40:01;2.83;;;0.98;;
27985;SDS011;15453;53.692;10.168;2022-09-09T13:42:29;3.50;;;1.27;;
27985;SDS011;15453;53.692;10.168;2022-09-09T13:44:55;2.85;;;1.20;;
27985;SDS011;15453;53.692;10.168;2022-09-09T13:47:22;3.95;;;1.17;;
27985;SDS011;15453;53.692;10.168;2022-09-09T13:49:55;3.05;;;1.60;;
27985;SDS011;15453;53.692;10.168;2022-09-09T13:52:20;3.30;;;1.52;;
27985;SDS011;15453;53.692;10.168;2022-09-09T13:54:48;3.00;;;1.23;;
27985;SDS011;15453;53.692;10.168;2022-09-09T13:57:15;3.90;;;1.60;;
27985;SDS011;15453;53.692;10.168;2022-09-09T13:59:43;2.95;;;1.20;;
27985;SDS011;15453;53.692;10.168;2022-09-09T14:02:09;3.92;;;1.10;;
27985;SDS011;15453;53.692;10.168;2022-09-09T14:04:34;3.58;;;1.30;;
27985;SDS011;15453;53.692;10.168;2022-09-09T14:07:00;3.28;;;1.20;;
27985;SDS011;15453;53.692;10.168;2022-09-09T14:09:26;1.55;;;1.10;;
27985;SDS011;15453;53.692;10.168;2022-09-09T14:11:51;2.00;;;0.90;;
27985;SDS011;15453;53.692;10.168;2022-09-09T14:14:16;5.25;;;1.48;;
27985;SDS011;15453;53.692;10.168;2022-09-09T14:16:42;5.63;;;1.60;;
27985;SDS011;15453;53.692;10.168;2022-09-09T14:19:08;7.28;;;1.70;;
27985;SDS011;15453;53.692;10.168;2022-09-09T14:21:34;3.63;;;1.38;;
27985;SDS011;15453;53.692;10.168;2022-09-09T14:23:59;4.30;;;2.00;;
27985;SDS011;15453;53.692;10.168;2022-09-09T14:26:24;1.85;;;1.10;;
27985;SDS011;15453;53.692;10.168;2022-09-09T14:28:51;1.77;;;0.68;;
27985;SDS011;15453;53.692;10.168;2022-09-09T14:31:16;3.88;;;1.13;;
27985;SDS011;15453;53.692;10.168;2022-09-09T14:33:43;4.38;;;1.40;;
27985;SDS011;15453;53.692;10.168;2022-09-09T14:36:08;3.75;;;1.75;;
27985;SDS011;15453;53.692;10.168;2022-09-09T14:38:35;4.28;;;1.70;;
27985;SDS011;15453;53.692;10.168;2022-09-09T14:41:05;5.22;;;1.60;;
27985;SDS011;15453;53.692;10.168;2022-09-09T14:43:32;3.00;;;1.30;;
27985;SDS011;15453;53.692;10.168;2022-09-09T14:45:57;6.18;;;1.70;;
27985;SDS011;15453;53.692;10.168;2022-09-09T14:48:32;3.13;;;1.50;;
27985;SDS011;15453;53.692;10.168;2022-09-09T14:51:04;4.43;;;2.17;;
27985;SDS011;15453;53.692;10.168;2022-09-09T14:53:30;3.85;;;2.17;;
27985;SDS011;15453;53.692;10.168;2022-09-09T14:56:02;3.92;;;1.73;;
27985;SDS011;15453;53.692;10.168;2022-09-09T14:58:30;5.22;;;1.83;;
27985;SDS011;15453;53.692;10.168;2022-09-09T15:01:01;4.78;;;1.45;;
27985;SDS011;15453;53.692;10.168;2022-09-09T15:03:27;3.53;;;1.50;;
27985;SDS011;15453;53.692;10.168;2022-09-09T15:05:52;4.40;;;1.75;;
27985;SDS011;15453;53.692;10.168;2022-09-09T15:08:17;3.78;;;1.60;;
27985;SDS011;15453;53.692;10.168;2022-09-09T15:10:43;4.55;;;1.60;;
27985;SDS011;15453;53.692;10.168;2022-09-09T15:13:09;5.43;;;1.90;;
27985;SDS011;15453;53.692;10.168;2022-09-09T15:15:35;3.13;;;1.60;;
27985;SDS011;15453;53.692;10.168;2022-09-09T15:18:00;2.08;;;1.20;;
27985;SDS011;15453;53.692;10.168;2022-09-09T15:20:25;3.55;;;1.50;;
27985;SDS011;15453;53.692;10.168;2022-09-09T15:22:50;4.70;;;2.00;;
27985;SDS011;15453;53.692;10.168;2022-09-09T15:25:17;4.15;;;1.60;;
27985;SDS011;15453;53.692;10.168;2022-09-09T15:27:43;5.75;;;1.67;;
27985;SDS011;15453;53.692;10.168;2022-09-09T15:30:09;4.38;;;1.15;;
27985;SDS011;15453;53.692;10.168;2022-09-09T15:32:34;5.93;;;1.40;;
27985;SDS011;15453;53.692;10.168;2022-09-09T15:35:00;3.42;;;1.30;;
27985;SDS011;15453;53.692;10.168;2022-09-09T15:37:26;2.70;;;1.13;;
27985;SDS011;15453;53.692;10.168;2022-09-09T15:39:51;5.10;;;1.40;;
27985;SDS011;15453;53.692;10.168;2022-09-09T15:42:16;4.43;;;1.50;;
27985;SDS011;15453;53.692;10.168;2022-09-09T15:44:42;3.42;;;1.33;;
27985;SDS011;15453;53.692;10.168;2022-09-09T15:47:10;4.70;;;1.30;;
27985;SDS011;15453;53.692;10.168;2022-09-09T15:49:37;2.95;;;1.60;;
27985;SDS011;15453;53.692;10.168;2022-09-09T15:52:03;2.60;;;1.27;;
27985;SDS011;15453;53.692;10.168;2022-09-09T15:54:31;2.63;;;1.40;;
27985;SDS011;15453;53.692;10.168;2022-09-09T15:56:58;2.00;;;1.10;;
27985;SDS011;15453;53.692;10.168;2022-09-09T15:59:26;3.43;;;1.43;;
27985;SDS011;15453;53.692;10.168;2022-09-09T16:01:53;3.13;;;1.30;;
27985;SDS011;15453;53.692;10.168;2022-09-09T16:04:19;3.00;;;1.30;;
27985;SDS011;15453;53.692;10.168;2022-09-09T16:06:58;2.70;;;1.20;;
27985;SDS011;15453;53.692;10.168;2022-09-09T16:09:26;5.88;;;1.30;;
27985;SDS011;15453;53.692;10.168;2022-09-09T16:11:52;2.95;;;1.33;;
27985;SDS011;15453;53.692;10.168;2022-09-09T16:14:18;3.83;;;1.40;;
27985;SDS011;15453;53.692;10.168;2022-09-09T16:16:44;3.00;;;1.48;;
27985;SDS011;15453;53.692;10.168;2022-09-09T16:19:10;3.78;;;1.50;;